Time;durP1;ratioP1;P1;durP2;ratioP2;P2;SDS_P1;SDS_P2;PMS_P1;PMS_P2;Temp;Humidity;BMP_temperature;BMP_pressure;BME280_temperature;BME280_humidity;BME280_pressure;Samples;Min_cycle;Max_cycle;Signal;HPM_P1;HPM_P2
2023/02/04 00:01:04;;;;;;;2.00;0.60;;;;;;;12.38;43.36;98750.75;5041847;28;20085;-68
2023/02/04 00:03:30;;;;;;;2.97;0.60;;;;;;;12.59;44.58;98740.75;5048205;28;20035;-68
2023/02/04 00:05:55;;;;;;;2.20;0.73;;;;;;;12.73;43.60;98747.19;5081543;28;20067;-68
2023/02/04 00:08:22;;;;;;;2.75;0.80;;;;;;;12.55;45.39;98743.81;5066519;28;20038;-68
2023/02/04 00:10:48;;;;;;;1.55;0.50;;;;;;;12.30;46.90;98747.09;5074128;28;20044;-68
2023/02/04 00:13:14;;;;;;;1.88;0.50;;;;;;;12.49;45.94;98746.06;5052010;28;20501;-68
2023/02/04 00:15:40;;;;;;;1.73;0.30;;;;;;;12.88;44.89;98748.22;5065230;28;20596;-68
2023/02/04 00:18:08;;;;;;;2.00;0.40;;;;;;;12.78;45.12;98734.50;5068481;28;20028;-66
2023/02/04 00:20:34;;;;;;;1.80;0.60;;;;;;;12.74;45.78;98741.00;5046871;28;20526;-68
2023/02/04 00:23:00;;;;;;;0.73;0.20;;;;;;;12.68;46.13;98750.25;5065468;28;20047;-68
2023/02/04 00:25:26;;;;;;;1.08;0.32;;;;;;;12.47;45.74;98706.28;5044846;28;20031;-68
2023/02/04 00:27:52;;;;;;;0.95;0.20;;;;;;;12.84;43.71;98736.47;5057131;28;20016;-68
2023/02/04 00:30:17;;;;;;;0.52;0.30;;;;;;;12.77;43.81;98734.66;5058828;28;20403;-68
2023/02/04 00:32:43;;;;;;;1.75;0.45;;;;;;;12.64;44.48;98730.66;5049770;28;20165;-68
2023/02/04 00:35:09;;;;;;;1.77;0.28;;;;;;;12.82;41.39;98729.78;5052253;28;20388;-68
2023/02/04 00:37:34;;;;;;;1.70;0.50;;;;;;;12.99;43.68;98730.66;5037823;28;20085;-68
2023/02/04 00:40:00;;;;;;;1.63;0.50;;;;;;;12.83;44.21;98732.25;5064046;28;20182;-68
2023/02/04 00:42:26;;;;;;;0.70;0.30;;;;;;;12.66;42.85;98727.91;5067707;28;20027;-68
2023/02/04 00:44:52;;;;;;;1.75;0.20;;;;;;;12.88;40.83;98734.38;5044653;28;20017;-68
2023/02/04 00:47:18;;;;;;;0.68;0.20;;;;;;;12.82;42.42;98740.22;5069038;28;20111;-69
2023/02/04 00:49:43;;;;;;;2.33;0.47;;;;;;;12.91;42.95;98736.69;5065446;28;20656;-68
2023/02/04 00:52:09;;;;;;;0.20;0.20;;;;;;;12.88;41.86;98736.97;5065586;28;20766;-69
2023/02/04 00:54:35;;;;;;;0.20;0.10;;;;;;;12.75;42.24;98706.09;5055435;28;20024;-68
2023/02/04 00:57:01;;;;;;;0.10;0.10;;;;;;;13.15;39.61;98728.13;5050081;28;20146;-68
2023/02/04 00:59:26;;;;;;;0.10;0.10;;;;;;;13.39;38.58;98723.97;5044328;28;20119;-68
2023/02/04 01:01:52;;;;;;;1.35;0.10;;;;;;;13.54;38.31;98716.31;5062226;28;20025;-68
2023/02/04 01:04:18;;;;;;;2.05;0.45;;;;;;;13.60;38.31;98715.69;5065237;28;20024;-68
2023/02/04 01:06:43;;;;;;;1.73;0.40;;;;;;;13.88;37.33;98716.19;5057171;28;20044;-68
2023/02/04 01:09:09;;;;;;;0.98;0.20;;;;;;;13.98;36.81;98721.25;5063136;28;20035;-69
2023/02/04 01:11:35;;;;;;;0.20;0.10;;;;;;;13.95;36.74;98721.59;5066353;28;20065;-68
2023/02/04 01:14:01;;;;;;;0.30;0.10;;;;;;;14.23;36.14;98729.91;5057404;28;20036;-68
2023/02/04 01:16:27;;;;;;;1.75;0.20;;;;;;;14.15;36.25;98720.28;5064673;28;20028;-69
2023/02/04 01:18:54;;;;;;;1.00;0.22;;;;;;;14.17;36.34;98725.34;5042957;28;20107;-68
2023/02/04 01:21:23;;;;;;;1.55;0.20;;;;;;;14.12;36.36;98717.16;5056959;28;20729;-68
2023/02/04 01:23:49;;;;;;;0.38;0.15;;;;;;;13.93;36.84;98716.53;5062268;28;20070;-68
2023/02/04 01:26:15;;;;;;;0.45;0.20;;;;;;;13.86;37.20;98707.72;5062632;28;20036;-68
2023/02/04 01:28:41;;;;;;;2.03;0.57;;;;;;;13.73;38.20;98712.63;5048439;28;20032;-68
2023/02/04 01:31:06;;;;;;;0.45;0.13;;;;;;;13.70;37.41;98707.69;5063496;28;20129;-68
2023/02/04 01:33:32;;;;;;;0.10;0.10;;;;;;;14.01;36.62;98710.47;5054935;28;20044;-68
2023/02/04 01:35:57;;;;;;;0.73;0.20;;;;;;;14.09;37.46;98712.25;5063469;28;20016;-68
2023/02/04 01:38:23;;;;;;;0.22;0.10;;;;;;;13.82;39.12;98702.00;5067829;28;20036;-68
2023/02/04 01:40:48;;;;;;;3.30;0.15;;;;;;;13.79;37.37;98693.66;5065211;28;20048;-68
2023/02/04 01:43:16;;;;;;;0.20;0.10;;;;;;;13.82;37.25;98702.00;5048281;28;20640;-69
2023/02/04 01:45:42;;;;;;;0.73;0.10;;;;;;;14.58;35.68;98696.50;5058553;28;20036;-68
2023/02/04 01:48:08;;;;;;;0.40;0.20;;;;;;;14.59;35.45;98687.69;5065974;28;20035;-68
2023/02/04 01:50:34;;;;;;;0.65;0.10;;;;;;;14.32;36.82;98696.72;5049234;28;20131;-69
2023/02/04 01:52:59;;;;;;;1.50;0.20;;;;;;;13.83;38.24;98695.75;5060818;28;20039;-68
2023/02/04 01:55:28;;;;;;;0.88;0.22;;;;;;;13.54;40.30;98698.84;5066255;28;20677;-68
2023/02/04 01:57:54;;;;;;;0.95;0.20;;;;;;;13.15;42.85;98701.22;5066956;28;20059;-68
2023/02/04 02:00:27;;;;;;;0.30;0.10;;;;;;;13.25;39.95;98692.25;5059497;28;20028;-66
2023/02/04 02:02:53;;;;;;;0.13;0.10;;;;;;;13.67;38.01;98694.94;5047320;28;20679;-68
2023/02/04 02:05:32;;;;;;;0.47;0.10;;;;;;;13.67;38.06;98692.34;5042880;28;20034;-68
2023/02/04 02:07:59;;;;;;;0.10;0.10;;;;;;;13.91;36.81;98694.97;5065225;28;20032;-68
2023/02/04 02:10:25;;;;;;;0.30;0.10;;;;;;;14.13;36.09;98701.31;5040422;28;20463;-68
2023/02/04 02:12:51;;;;;;;0.40;0.10;;;;;;;14.30;35.58;98683.00;5056017;28;20043;-68
2023/02/04 02:15:17;;;;;;;0.28;0.10;;;;;;;14.50;35.21;98694.72;5057079;28;20016;-68
2023/02/04 02:17:43;;;;;;;0.10;0.10;;;;;;;14.53;36.18;98680.47;5063431;28;20035;-68
2023/02/04 02:20:12;;;;;;;0.52;0.20;;;;;;;14.09;38.29;98680.88;5080964;28;20682;-68
2023/02/04 02:22:50;;;;;;;0.20;0.10;;;;;;;13.72;39.31;98682.22;5059084;28;20028;-68
2023/02/04 02:25:16;;;;;;;2.67;0.22;;;;;;;13.59;39.54;98673.06;5060827;28;20032;-68
2023/02/04 02:27:42;;;;;;;0.45;0.10;;;;;;;13.63;38.14;98666.56;5058235;28;20096;-68
2023/02/04 02:30:09;;;;;;;0.43;0.10;;;;;;;13.97;37.23;98662.94;5059533;28;20035;-68
2023/02/04 02:32:35;;;;;;;0.40;0.10;;;;;;;13.97;37.24;98660.31;5047865;28;20192;-68
2023/02/04 02:35:01;;;;;;;0.30;0.10;;;;;;;13.68;40.69;98657.41;5058707;28;20032;-68
2023/02/04 02:37:27;;;;;;;2.38;0.20;;;;;;;13.42;41.00;98656.56;5075294;28;20028;-66
2023/02/04 02:39:52;;;;;;;0.30;0.10;;;;;;;13.17;41.32;98660.91;5064764;28;20036;-68
2023/02/04 02:42:18;;;;;;;0.60;0.17;;;;;;;13.87;37.74;98661.47;5037071;28;20145;-68
2023/02/04 02:44:45;;;;;;;0.20;0.00;;;;;;;14.32;36.58;98655.69;5065784;28;20062;-68
2023/02/04 02:47:13;;;;;;;0.40;0.10;;;;;;;14.44;36.75;98653.53;5065474;28;20024;-68
2023/02/04 02:49:39;;;;;;;0.20;0.10;;;;;;;14.53;36.72;98646.44;5063654;28;20173;-68
2023/02/04 02:52:05;;;;;;;0.57;0.05;;;;;;;14.27;37.54;98637.06;5064388;28;20024;-68
2023/02/04 02:54:31;;;;;;;0.10;0.10;;;;;;;14.19;38.00;98634.47;5053670;28;20028;-68
2023/02/04 02:56:57;;;;;;;0.00;0.00;;;;;;;13.92;40.03;98628.63;5048008;28;20166;-68
2023/02/04 02:59:24;;;;;;;0.05;0.05;;;;;;;13.79;39.96;98644.00;5049611;28;20142;-69
2023/02/04 03:01:56;;;;;;;0.30;0.10;;;;;;;13.75;40.81;98635.69;5068563;28;20036;-69
2023/02/04 03:04:23;;;;;;;0.43;0.10;;;;;;;13.32;43.79;98639.41;5065461;28;20017;-68
2023/02/04 03:06:49;;;;;;;0.22;0.10;;;;;;;13.04;46.19;98639.66;5064439;28;20657;-68
2023/02/04 03:09:15;;;;;;;0.00;0.00;;;;;;;13.03;43.97;98640.63;5060125;28;20024;-68
2023/02/04 03:11:40;;;;;;;0.90;0.10;;;;;;;13.21;43.64;98640.50;5064896;28;20040;-68
2023/02/04 03:14:06;;;;;;;0.00;0.00;;;;;;;12.99;43.69;98637.53;5049199;28;20021;-69
2023/02/04 03:16:33;;;;;;;0.20;0.10;;;;;;;13.12;44.28;98633.63;5065698;28;20449;-68
2023/02/04 03:18:59;;;;;;;0.88;0.15;;;;;;;13.01;44.28;98627.72;5059711;28;20082;-68
2023/02/04 03:21:25;;;;;;;0.32;0.10;;;;;;;13.01;45.46;98625.13;5067201;28;20031;-68
2023/02/04 03:23:51;;;;;;;0.30;0.10;;;;;;;12.90;46.02;98633.25;5058979;28;20028;-68
2023/02/04 03:26:17;;;;;;;0.20;0.00;;;;;;;12.45;47.07;98590.91;5048887;28;20055;-68
2023/02/04 03:28:42;;;;;;;0.17;0.10;;;;;;;12.54;47.72;98596.13;5051113;28;20119;-68
2023/02/04 03:31:08;;;;;;;0.28;0.10;;;;;;;12.75;45.27;98625.22;5045992;28;20037;-68
2023/02/04 03:33:34;;;;;;;0.10;0.10;;;;;;;12.75;46.18;98621.81;5066414;28;20057;-68
2023/02/04 03:36:00;;;;;;;0.68;0.20;;;;;;;12.89;44.94;98629.84;5065364;28;20024;-68
2023/02/04 03:38:26;;;;;;;0.00;0.00;;;;;;;12.83;45.39;98627.88;5055382;28;20039;-69
2023/02/04 03:40:51;;;;;;;0.00;0.00;;;;;;;12.72;45.16;98622.91;5053653;28;20027;-68
2023/02/04 03:43:17;;;;;;;0.10;0.10;;;;;;;12.75;45.21;98629.63;5065687;28;20028;-68
2023/02/04 03:45:43;;;;;;;0.20;0.00;;;;;;;12.86;45.39;98635.38;5069195;28;20024;-68
2023/02/04 03:48:08;;;;;;;0.75;0.20;;;;;;;12.89;45.91;98640.28;5050885;28;20125;-68
2023/02/04 03:50:34;;;;;;;0.10;0.10;;;;;;;12.82;44.67;98622.81;5068504;28;20155;-68
2023/02/04 03:52:59;;;;;;;0.30;0.10;;;;;;;12.81;45.65;98616.78;5067907;28;20059;-68
2023/02/04 03:55:25;;;;;;;0.20;0.10;;;;;;;12.60;46.86;98619.78;5071557;28;20455;-68
2023/02/04 03:57:51;;;;;;;0.00;0.00;;;;;;;12.45;48.27;98629.19;5067839;28;20135;-68
2023/02/04 04:00:17;;;;;;;0.00;0.00;;;;;;;12.35;47.61;98625.88;5047906;28;20047;-68
2023/02/04 04:02:43;;;;;;;0.20;0.10;;;;;;;12.44;47.07;98610.09;5070501;28;20028;-68
2023/02/04 04:05:08;;;;;;;1.55;0.22;;;;;;;12.19;48.44;98616.19;5082762;28;20791;-68
2023/02/04 04:07:34;;;;;;;0.90;0.10;;;;;;;12.13;49.58;98627.22;5050270;28;20498;-68
2023/02/04 04:09:59;;;;;;;1.05;0.20;;;;;;;12.03;48.60;98624.72;5063981;28;20028;-68
2023/02/04 04:12:25;;;;;;;1.05;0.38;;;;;;;12.31;46.02;98615.75;5050419;28;20058;-68
2023/02/04 04:14:50;;;;;;;0.68;0.20;;;;;;;12.45;45.73;98614.38;5066082;28;20063;-68
2023/02/04 04:17:16;;;;;;;0.20;0.10;;;;;;;12.74;44.65;98617.56;5047149;28;20352;-68
2023/02/04 04:19:43;;;;;;;0.47;0.10;;;;;;;12.48;45.36;98616.66;5047602;28;20065;-68
2023/02/04 04:22:09;;;;;;;0.35;0.15;;;;;;;12.41;46.03;98628.69;5049686;28;20032;-68
2023/02/04 04:24:34;;;;;;;0.30;0.05;;;;;;;12.09;48.67;98611.91;5066292;28;20673;-68
2023/02/04 04:27:00;;;;;;;0.52;0.08;;;;;;;11.97;49.92;98605.31;5071248;28;20463;-68
2023/02/04 04:29:25;;;;;;;0.10;0.10;;;;;;;11.93;50.33;98607.41;5073331;28;20036;-68
2023/02/04 04:31:50;;;;;;;0.85;0.10;;;;;;;11.78;50.44;98610.69;5063655;28;20028;-68
2023/02/04 04:34:16;;;;;;;0.13;0.10;;;;;;;11.79;49.38;98601.91;5046727;28;20097;-68
2023/02/04 04:36:41;;;;;;;0.20;0.10;;;;;;;11.64;51.61;98612.06;5052321;28;20093;-68
2023/02/04 04:39:07;;;;;;;1.58;0.20;;;;;;;11.49;52.24;98603.97;5067126;28;20050;-68
2023/02/04 04:41:32;;;;;;;0.75;0.20;;;;;;;11.69;50.57;98608.03;5067664;28;20032;-68
2023/02/04 04:43:58;;;;;;;0.55;0.10;;;;;;;11.55;48.34;98548.66;5058256;28;20054;-68
2023/02/04 04:46:23;;;;;;;0.40;0.10;;;;;;;12.00;48.46;98605.00;5066918;28;20089;-68
2023/02/04 04:48:48;;;;;;;0.40;0.15;;;;;;;11.91;50.62;98592.91;5066899;28;20032;-68
2023/02/04 04:51:14;;;;;;;1.55;0.10;;;;;;;11.86;52.17;98593.31;5044915;28;20101;-68
2023/02/04 04:53:39;;;;;;;1.00;0.10;;;;;;;11.68;51.92;98597.75;5052092;28;20044;-68
2023/02/04 04:56:05;;;;;;;0.10;0.10;;;;;;;11.40;53.30;98565.81;5051232;28;20114;-68
2023/02/04 04:58:31;;;;;;;0.63;0.10;;;;;;;11.48;53.01;98595.34;5066971;28;20040;-68
2023/02/04 05:00:56;;;;;;;0.35;0.10;;;;;;;11.47;53.56;98590.28;5065576;28;20122;-68
2023/02/04 05:03:22;;;;;;;0.55;0.10;;;;;;;11.88;50.59;98598.38;5048817;28;20035;-68
2023/02/04 05:05:47;;;;;;;0.45;0.17;;;;;;;11.78;50.46;98605.50;5065209;28;20554;-68
2023/02/04 05:08:15;;;;;;;0.28;0.13;;;;;;;11.96;49.33;98614.09;5065018;28;20031;-68
2023/02/04 05:10:42;;;;;;;0.20;0.20;;;;;;;12.09;48.18;98608.47;5041557;28;20032;-69
2023/02/04 05:13:08;;;;;;;1.20;0.20;;;;;;;12.36;46.10;98604.03;5065049;28;20035;-68
2023/02/04 05:15:34;;;;;;;0.50;0.10;;;;;;;12.76;44.66;98610.38;5065312;28;20020;-68
2023/02/04 05:18:00;;;;;;;0.30;0.13;;;;;;;13.69;39.80;98602.38;5067382;28;20028;-68
2023/02/04 05:20:25;;;;;;;0.17;0.10;;;;;;;14.33;38.10;98605.00;5064464;28;20020;-67
2023/02/04 05:22:51;;;;;;;0.05;0.00;;;;;;;14.35;39.15;98603.03;5043684;28;20108;-68
2023/02/04 05:25:16;;;;;;;0.32;0.10;;;;;;;14.48;37.63;98593.84;5050152;28;20062;-68
2023/02/04 05:27:42;;;;;;;0.10;0.10;;;;;;;14.51;38.14;98610.00;5064397;28;20043;-68
2023/02/04 05:30:12;;;;;;;2.47;0.20;;;;;;;14.24;40.49;98626.94;5063521;28;20020;-68
2023/02/04 05:32:38;;;;;;;0.40;0.10;;;;;;;14.10;39.14;98610.13;5065487;28;20027;-68
2023/02/04 05:35:04;;;;;;;0.63;0.10;;;;;;;14.17;39.62;98625.97;5053424;28;20023;-69
2023/02/04 05:37:30;;;;;;;0.25;0.10;;;;;;;14.40;38.03;98615.59;5069835;28;20028;-68
2023/02/04 05:39:57;;;;;;;0.68;0.10;;;;;;;14.37;39.02;98632.44;5071461;28;20028;-69
2023/02/04 05:42:22;;;;;;;0.00;0.00;;;;;;;14.71;36.50;98625.31;5049082;28;20029;-68
2023/02/04 05:44:48;;;;;;;0.38;0.05;;;;;;;15.74;33.43;98621.56;5064437;28;20033;-68
2023/02/04 05:47:14;;;;;;;0.20;0.00;;;;;;;15.91;33.89;98622.22;5065196;28;20112;-68
2023/02/04 05:49:39;;;;;;;0.20;0.10;;;;;;;15.45;36.99;98614.41;5050959;28;20076;-68
2023/02/04 05:52:05;;;;;;;0.28;0.10;;;;;;;14.37;41.84;98629.03;5065848;28;20118;-68
2023/02/04 05:54:31;;;;;;;0.20;0.10;;;;;;;14.02;41.22;98636.31;5039007;28;20024;-68
2023/02/04 05:56:56;;;;;;;0.00;0.00;;;;;;;14.28;39.69;98616.97;5069263;28;20752;-69
2023/02/04 05:59:22;;;;;;;0.20;0.10;;;;;;;14.23;40.57;98623.50;5059862;28;20028;-68
2023/02/04 06:01:47;;;;;;;0.10;0.10;;;;;;;14.41;38.00;98632.94;5051453;28;20142;-68
2023/02/04 06:04:15;;;;;;;0.10;0.10;;;;;;;14.57;38.34;98616.38;5043858;28;20031;-68
2023/02/04 06:06:41;;;;;;;0.10;0.10;;;;;;;14.67;38.55;98618.81;5066278;28;20028;-68
2023/02/04 06:09:07;;;;;;;0.20;0.10;;;;;;;14.40;40.62;98637.34;5063925;28;20108;-68
2023/02/04 06:11:32;;;;;;;0.70;0.20;;;;;;;13.82;39.87;98589.63;5067140;28;20467;-68
2023/02/04 06:13:58;;;;;;;0.73;0.20;;;;;;;14.49;38.32;98635.50;5048622;28;20028;-68
2023/02/04 06:16:23;;;;;;;2.22;0.20;;;;;;;14.42;38.28;98638.00;5046183;28;20029;-68
2023/02/04 06:18:49;;;;;;;0.60;0.10;;;;;;;14.36;39.35;98646.50;5041715;28;20028;-68
2023/02/04 06:21:15;;;;;;;0.70;0.13;;;;;;;14.49;37.72;98645.16;5039945;28;20565;-68
2023/02/04 06:23:40;;;;;;;0.00;0.00;;;;;;;14.77;38.37;98661.28;5063861;28;20055;-68
2023/02/04 06:26:07;;;;;;;0.50;0.10;;;;;;;14.60;37.56;98635.19;5047365;28;20039;-68
2023/02/04 06:28:32;;;;;;;0.55;0.10;;;;;;;15.28;35.27;98632.06;5051093;28;20069;-68
2023/02/04 06:30:58;;;;;;;0.35;0.10;;;;;;;14.64;39.63;98667.06;5065787;28;20086;-68
2023/02/04 06:33:23;;;;;;;0.13;0.13;;;;;;;14.66;37.60;98672.09;5038920;28;20117;-68
2023/02/04 06:35:49;;;;;;;0.38;0.10;;;;;;;14.40;39.78;98658.28;5064145;28;20028;-68
2023/02/04 06:38:15;;;;;;;0.17;0.17;;;;;;;13.96;40.79;98682.22;5061975;28;20107;-68
2023/02/04 06:40:41;;;;;;;0.80;0.30;;;;;;;14.04;39.08;98653.44;5073893;28;20048;-68
2023/02/04 06:43:06;;;;;;;0.35;0.17;;;;;;;14.30;38.64;98636.72;5039971;28;20398;-68
2023/02/04 06:45:32;;;;;;;1.63;0.10;;;;;;;16.04;32.99;98651.25;5043802;28;20067;-68
2023/02/04 06:47:58;;;;;;;0.20;0.00;;;;;;;16.17;32.76;98666.38;5055639;28;20051;-68
2023/02/04 06:50:23;;;;;;;1.55;0.20;;;;;;;15.25;37.63;98664.63;5062186;28;20071;-68
2023/02/04 06:52:49;;;;;;;0.13;0.10;;;;;;;14.46;39.91;98663.84;5051186;28;20452;-68
2023/02/04 06:55:15;;;;;;;0.60;0.10;;;;;;;14.65;37.42;98676.53;5051053;28;20123;-68
2023/02/04 06:57:41;;;;;;;0.03;0.03;;;;;;;14.52;39.45;98666.56;5066202;28;20022;-68
2023/02/04 07:00:08;;;;;;;0.25;0.10;;;;;;;14.57;37.94;98668.69;5066870;28;20096;-68
2023/02/04 07:02:39;;;;;;;0.00;0.00;;;;;;;14.54;38.35;98633.19;5069567;28;20481;-68
2023/02/04 07:05:05;;;;;;;0.10;0.10;;;;;;;14.90;36.80;98663.38;5047406;28;20126;-68
2023/02/04 07:07:31;;;;;;;0.52;0.10;;;;;;;14.97;37.02;98657.25;5067567;28;20884;-68
2023/02/04 07:09:56;;;;;;;1.10;0.10;;;;;;;14.93;37.07;98652.53;5055949;28;20485;-68
2023/02/04 07:12:22;;;;;;;0.38;0.10;;;;;;;14.90;36.22;98658.94;5057269;28;20056;-68
2023/02/04 07:14:47;;;;;;;0.13;0.03;;;;;;;14.76;37.75;98665.69;5048390;28;20545;-68
2023/02/04 07:17:13;;;;;;;0.10;0.10;;;;;;;14.70;38.67;98663.75;5061388;28;20538;-68
2023/02/04 07:19:41;;;;;;;0.43;0.10;;;;;;;15.67;33.43;98667.78;5047475;28;20070;-68
2023/02/04 07:22:07;;;;;;;0.03;0.03;;;;;;;15.61;34.59;98658.00;5051385;28;20046;-68
2023/02/04 07:24:32;;;;;;;0.55;0.10;;;;;;;15.09;37.25;98678.63;5067894;28;20474;-68
2023/02/04 07:26:58;;;;;;;0.10;0.10;;;;;;;14.64;40.31;98682.78;5055577;28;20055;-68
2023/02/04 07:29:24;;;;;;;0.35;0.10;;;;;;;14.95;35.65;98682.00;5053502;28;20067;-68
2023/02/04 07:31:51;;;;;;;0.00;0.00;;;;;;;14.72;39.59;98681.91;5050507;28;20034;-68
2023/02/04 07:34:17;;;;;;;0.10;0.10;;;;;;;14.40;39.68;98679.22;5062540;28;20099;-68
2023/02/04 07:36:43;;;;;;;0.70;0.10;;;;;;;14.77;38.19;98685.66;5047254;28;20421;-68
2023/02/04 07:39:08;;;;;;;0.28;0.05;;;;;;;14.25;40.80;98687.91;5049565;28;20043;-68
2023/02/04 07:41:34;;;;;;;0.00;0.00;;;;;;;14.49;39.30;98674.75;5041684;28;20443;-69
2023/02/04 07:44:00;;;;;;;0.10;0.10;;;;;;;14.49;39.24;98681.78;5068598;28;20031;-68
2023/02/04 07:46:26;;;;;;;0.10;0.10;;;;;;;14.90;36.46;98682.50;5048896;28;20028;-68
2023/02/04 07:48:51;;;;;;;0.00;0.00;;;;;;;14.85;37.27;98690.03;5064499;28;20044;-68
2023/02/04 07:51:18;;;;;;;0.30;0.10;;;;;;;14.83;37.53;98697.25;5045332;28;20018;-68
2023/02/04 07:53:43;;;;;;;0.30;0.10;;;;;;;15.00;37.23;98690.13;5061496;28;20032;-68
2023/02/04 07:56:09;;;;;;;0.30;0.10;;;;;;;14.72;39.73;98692.38;5046647;28;20122;-68
2023/02/04 07:58:34;;;;;;;0.20;0.00;;;;;;;14.29;41.45;98700.50;5046733;28;20032;-67
2023/02/04 08:01:00;;;;;;;0.40;0.10;;;;;;;14.21;41.57;98716.19;5068817;28;20463;-67
2023/02/04 08:03:26;;;;;;;1.00;0.20;;;;;;;14.07;41.19;98714.22;5062084;28;20054;-68
2023/02/04 08:05:52;;;;;;;0.35;0.10;;;;;;;14.06;41.41;98712.63;5062514;28;20039;-69
2023/02/04 08:08:17;;;;;;;0.00;0.00;;;;;;;14.46;38.34;98716.16;5078022;28;20027;-68
2023/02/04 08:10:43;;;;;;;0.63;0.10;;;;;;;14.55;39.19;98715.16;5064528;28;20035;-68
2023/02/04 08:13:08;;;;;;;0.22;0.10;;;;;;;14.28;40.60;98724.19;5057124;28;20102;-68
2023/02/04 08:15:34;;;;;;;0.65;0.17;;;;;;;14.64;36.60;98723.81;5061822;28;20028;-68
2023/02/04 08:17:59;;;;;;;0.68;0.20;;;;;;;15.67;33.48;98720.22;5050711;28;20081;-67
2023/02/04 08:20:25;;;;;;;0.00;0.00;;;;;;;15.58;34.83;98712.38;5068396;28;20505;-67
2023/02/04 08:22:50;;;;;;;0.55;0.20;;;;;;;15.07;38.39;98727.75;5066342;28;20385;-67
2023/02/04 08:25:16;;;;;;;0.90;0.22;;;;;;;14.39;41.72;98735.13;5048407;28;20123;-68
2023/02/04 08:48:11;;;;;;;0.00;0.00;;;;;;;14.53;38.73;98727.56;5075726;28;20196;-66
2023/02/04 08:50:36;;;;;;;0.55;0.22;;;;;;;15.10;35.89;98750.97;5042775;28;20509;-67
2023/02/04 08:53:03;;;;;;;0.00;0.00;;;;;;;15.62;34.43;98753.97;5045039;28;20097;-68
2023/02/04 08:55:28;;;;;;;0.10;0.10;;;;;;;15.45;35.83;98769.78;5065229;28;20024;-65
2023/02/04 08:57:54;;;;;;;0.47;0.10;;;;;;;15.41;36.69;98772.94;5044768;28;20421;-65
2023/02/04 09:00:19;;;;;;;0.05;0.05;;;;;;;15.21;37.30;98759.47;5046587;28;20043;-66
2023/02/04 09:02:45;;;;;;;1.65;0.50;;;;;;;15.41;36.16;98754.59;5069289;28;20030;-65
2023/02/04 09:05:10;;;;;;;1.23;0.30;;;;;;;15.26;36.22;98771.06;5074705;28;20161;-64
2023/02/04 09:07:36;;;;;;;0.98;0.30;;;;;;;14.97;38.55;98772.47;5066677;28;20040;-68
2023/02/04 09:10:02;;;;;;;0.13;0.08;;;;;;;14.88;38.69;98773.47;5044058;28;20050;-68
2023/02/04 09:12:27;;;;;;;0.30;0.10;;;;;;;15.02;36.96;98769.31;5058699;28;20039;-68
2023/02/04 09:14:53;;;;;;;0.43;0.20;;;;;;;15.38;34.43;98782.75;5045906;28;20475;-68
2023/02/04 09:17:18;;;;;;;3.33;0.40;;;;;;;15.84;33.50;98774.16;5061569;28;20039;-68
2023/02/04 09:19:44;;;;;;;1.13;0.20;;;;;;;16.18;33.04;98772.13;5059667;28;20028;-68
2023/02/04 09:22:11;;;;;;;0.38;0.10;;;;;;;15.83;36.24;98761.25;5074494;28;20486;-67
2023/02/04 09:24:36;;;;;;;0.68;0.15;;;;;;;15.48;35.80;98766.00;5061225;28;20584;-68
2023/02/04 09:27:01;;;;;;;2.38;0.50;;;;;;;15.26;37.56;98772.84;5045349;28;20107;-68
2023/02/04 09:29:27;;;;;;;2.03;0.40;;;;;;;15.39;35.38;98765.25;5054843;28;20098;-68
2023/02/04 09:31:52;;;;;;;1.00;0.20;;;;;;;15.48;36.74;98781.72;5052734;28;20031;-68
2023/02/04 09:34:18;;;;;;;0.17;0.10;;;;;;;15.35;36.93;98777.03;5057340;28;20047;-68
2023/02/04 09:36:43;;;;;;;0.45;0.15;;;;;;;15.34;36.09;98775.44;5056402;28;20043;-68
2023/02/04 09:39:09;;;;;;;0.68;0.20;;;;;;;15.24;37.64;98791.38;5074653;28;20032;-68
2023/02/04 09:41:35;;;;;;;1.58;0.40;;;;;;;15.74;33.15;98755.25;5076910;28;20060;-68
2023/02/04 09:44:02;;;;;;;1.00;0.30;;;;;;;16.50;31.64;98787.59;5054851;28;20254;-67
2023/02/04 09:46:28;;;;;;;0.00;0.00;;;;;;;16.29;33.46;98796.13;5050976;28;20134;-68
2023/02/04 09:48:54;;;;;;;0.10;0.00;;;;;;;16.00;33.55;98780.31;5055933;28;20031;-68
2023/02/04 09:51:23;;;;;;;0.47;0.15;;;;;;;15.87;33.11;98755.47;5031927;28;20026;-67
2023/02/04 09:53:49;;;;;;;0.70;0.20;;;;;;;15.54;36.72;98802.84;5047218;28;20536;-67
2023/02/04 09:56:16;;;;;;;1.17;0.35;;;;;;;15.76;33.34;98790.78;5048565;28;20040;-68
2023/02/04 09:58:41;;;;;;;0.32;0.20;;;;;;;16.60;31.10;98808.31;5047110;28;20032;-66
2023/02/04 10:01:15;;;;;;;0.40;0.15;;;;;;;16.56;32.07;98808.88;5045749;28;20035;-68
2023/02/04 10:03:45;;;;;;;0.00;0.00;;;;;;;16.24;32.83;98805.53;5051563;28;20121;-67
2023/02/04 10:06:12;;;;;;;0.10;0.10;;;;;;;16.13;35.00;98812.81;5052209;28;20589;-67
2023/02/04 10:08:39;;;;;;;0.47;0.10;;;;;;;16.18;32.84;98811.47;5070811;28;20032;-66
2023/02/04 10:11:05;;;;;;;0.52;0.15;;;;;;;16.42;32.22;98815.72;5030190;28;20059;-68
2023/02/04 10:13:32;;;;;;;3.40;0.73;;;;;;;16.69;31.00;98820.38;5070424;28;20048;-67
2023/02/04 10:15:59;;;;;;;0.98;0.25;;;;;;;16.41;32.60;98835.91;5045834;28;20043;-67
2023/02/04 10:18:29;;;;;;;0.63;0.10;;;;;;;16.35;32.93;98815.59;5054252;28;20079;-68
2023/02/04 10:21:03;;;;;;;0.00;0.00;;;;;;;16.43;33.41;98839.16;5048937;28;20600;-67
2023/02/04 10:23:29;;;;;;;0.22;0.10;;;;;;;16.20;34.36;98826.03;5047073;28;20036;-68
2023/02/04 10:25:54;;;;;;;0.57;0.20;;;;;;;16.34;33.05;98842.84;5067047;28;20020;-67
2023/02/04 10:28:20;;;;;;;1.70;0.30;;;;;;;16.28;32.87;98814.66;5067912;28;20564;-68
2023/02/04 10:30:45;;;;;;;0.28;0.15;;;;;;;16.58;32.20;98818.19;5052819;28;20036;-67
2023/02/04 10:33:25;;;;;;;0.20;0.03;;;;;;;16.62;31.26;98837.84;5046836;28;20302;-67
2023/02/04 10:35:53;;;;;;;0.08;0.00;;;;;;;16.79;31.44;98832.44;5042364;28;20028;-67
2023/02/04 10:38:19;;;;;;;0.60;0.13;;;;;;;16.97;30.26;98827.69;5075424;28;20035;-67
2023/02/04 10:40:46;;;;;;;1.48;0.20;;;;;;;17.22;29.88;98861.56;5032787;28;20474;-68
2023/02/04 10:43:20;;;;;;;0.45;0.10;;;;;;;16.92;30.00;98814.28;5058964;28;20123;-67
2023/02/04 10:45:50;;;;;;;0.40;0.10;;;;;;;17.27;29.27;98822.44;5031730;28;20031;-67
2023/02/04 10:48:16;;;;;;;;;;;;;;;17.21;29.53;98829.25;5072205;28;20117;-67
2023/02/04 10:50:41;;;;;;;1.65;0.13;;;;;;;17.23;29.66;98842.16;5055573;28;19971;-67
2023/02/04 10:55:53;;;;;;;0.40;0.13;;;;;;;17.17;29.85;98848.16;5022915;28;20561;-67
2023/02/04 10:58:23;;;;;;;1.33;0.10;;;;;;;17.06;30.65;98849.41;5018252;28;20028;-67
2023/02/04 11:00:49;;;;;;;0.43;0.10;;;;;;;16.68;32.04;98826.63;5056464;28;20024;-67
2023/02/04 11:03:25;;;;;;;0.00;0.00;;;;;;;16.57;32.36;98829.66;5054923;28;20032;-67
2023/02/04 11:16:42;;;;;;;0.20;0.08;;;;;;;17.18;29.72;98841.91;5056487;28;20051;-66
2023/02/04 11:19:43;;;;;;;0.10;0.10;;;;;;;17.44;28.59;98836.19;5035399;28;20036;-64
2023/02/04 11:28:59;;;;;;;0.38;0.13;;;;;;;16.60;31.38;98818.81;4993014;28;20911;-65
2023/02/04 11:31:28;;;;;;;0.68;0.20;;;;;;;17.04;30.24;98818.06;4970957;28;20032;-66
2023/02/04 11:34:22;;;;;;;0.00;0.00;;;;;;;16.60;32.72;98828.50;4990356;28;20028;-68
2023/02/04 11:37:30;;;;;;;2.50;0.10;;;;;;;16.51;32.15;98846.13;5052447;28;20044;-67
2023/02/04 11:40:00;;;;;;;1.20;0.10;;;;;;;16.70;30.30;98831.69;5058710;28;20121;-69
2023/02/04 11:42:46;;;;;;;0.10;0.10;;;;;;;16.51;33.07;98843.50;5038226;28;20188;-69
2023/02/04 11:45:19;;;;;;;0.52;0.10;;;;;;;16.44;31.96;98830.28;5044473;28;20043;-68
2023/02/04 11:47:46;;;;;;;0.10;0.00;;;;;;;16.40;32.54;98843.94;5046397;28;20036;-68
2023/02/04 11:50:25;;;;;;;0.00;0.00;;;;;;;16.52;32.64;98826.78;5043209;28;20199;-68
2023/02/04 11:53:55;;;;;;;0.00;0.00;;;;;;;16.53;31.73;98826.59;5006842;28;20032;-68
2023/02/04 11:57:04;;;;;;;0.10;0.10;;;;;;;16.36;32.30;98827.72;4906309;28;20092;-67
2023/02/04 11:59:38;;;;;;;0.20;0.00;;;;;;;16.18;33.29;98830.66;4884608;28;20121;-67
2023/02/04 12:02:25;;;;;;;0.10;0.10;;;;;;;16.23;32.44;98854.56;4912258;28;20057;-67
2023/02/04 12:05:18;;;;;;;0.30;0.10;;;;;;;16.79;30.16;98816.69;4978781;28;20289;-68
2023/02/04 12:07:54;;;;;;;0.28;0.00;;;;;;;16.97;29.97;98819.00;4901519;28;20050;-69
2023/02/04 12:14:01;;;;;;;0.40;0.20;;;;;;;17.17;28.89;98840.28;4977053;28;20060;-68
2023/02/04 12:17:05;;;;;;;0.65;0.10;;;;;;;16.98;30.10;98820.63;4971936;28;20038;-69
2023/02/04 14:19:42;;;;;;;0.10;0.10;;;;;;;16.69;29.57;98941.16;4996909;28;20058;-65